Zamboanga, Philippines
Current Conditions -  °F | °C
As of 9:00 AM on Saturday 25 Oct 2014 (Local Time) from RPMZ Reporting Station
Scattered Clouds Scattered Clouds  
Wind Chill: 88°   Ceiling: Unl
Heat Index: 102°   Visibility: 6mi
Dew Point: 79°   Wind: 5mph
Humidity: 75%   Direction: 60°ENE
Pressure: 29.94"   Gusts: NA
Location:  6.92°N, 122.08°E
Report Text: RPMZ 250100Z 06004KT 9999 SCT018 31/26 Q1014 RMK A2994
Loading
Personal Weather Stations






























Interactive Weather Map
Tropical Storm Tracking
New forecast layout! Learn more

10-Day Weather Forecast

Advertisements
Track Severe Weather on mobile